Airport ID:KSMD
Update Time (UTC):21/11/2019 01:15
Wind Speed (Knots):0
Wind Direction (Magnetic):120
Temperature (°C):6.4
Dew Point (°C):2.7
Humidity (%):77.3
Altimeter (inHg):30.22
Density Altitude (Feet):
Visibility (Miles):10
Clouds (Hundreds of feet):\\\\
Present Weather:
METAR:METAR KSMD 210115Z AUTO 00000KT 10SM 06/03 A3022 RMK A01

The data displayed is for advisory purposes only and is not to be used for flight planning or operations.

This page is not automatically refreshed. Reload the page to see current data.